sensor_id;sensor_type;location;lat;lon;timestamp;temperature;humidity
16347;DHT22;8283;48.504;13.734;2024-03-06T00:01:58;8.20;73.50
16347;DHT22;8283;48.504;13.734;2024-03-06T00:04:18;8.20;73.60
16347;DHT22;8283;48.504;13.734;2024-03-06T00:06:37;8.20;73.50
16347;DHT22;8283;48.504;13.734;2024-03-06T00:08:56;8.20;73.60
16347;DHT22;8283;48.504;13.734;2024-03-06T00:11:16;8.20;73.50
16347;DHT22;8283;48.504;13.734;2024-03-06T00:13:36;8.20;73.80
16347;DHT22;8283;48.504;13.734;2024-03-06T00:15:55;8.30;73.80
16347;DHT22;8283;48.504;13.734;2024-03-06T00:18:15;8.30;73.90
16347;DHT22;8283;48.504;13.734;2024-03-06T00:20:34;8.30;73.90
16347;DHT22;8283;48.504;13.734;2024-03-06T00:22:54;8.30;74.00
16347;DHT22;8283;48.504;13.734;2024-03-06T00:25:13;8.30;73.90
16347;DHT22;8283;48.504;13.734;2024-03-06T00:27:33;8.30;74.10
16347;DHT22;8283;48.504;13.734;2024-03-06T00:29:52;8.20;74.20
16347;DHT22;8283;48.504;13.734;2024-03-06T00:32:11;8.20;74.30
16347;DHT22;8283;48.504;13.734;2024-03-06T00:34:31;8.30;74.50
16347;DHT22;8283;48.504;13.734;2024-03-06T00:36:50;8.30;74.60
16347;DHT22;8283;48.504;13.734;2024-03-06T00:39:10;8.30;74.90
16347;DHT22;8283;48.504;13.734;2024-03-06T00:41:29;8.30;75.10
16347;DHT22;8283;48.504;13.734;2024-03-06T00:43:49;8.30;75.10
16347;DHT22;8283;48.504;13.734;2024-03-06T00:46:08;8.40;75.90
16347;DHT22;8283;48.504;13.734;2024-03-06T00:48:27;8.50;75.30
16347;DHT22;8283;48.504;13.734;2024-03-06T00:50:47;8.50;75.30
16347;DHT22;8283;48.504;13.734;2024-03-06T00:53:06;8.50;75.30
16347;DHT22;8283;48.504;13.734;2024-03-06T00:55:26;8.60;75.30
16347;DHT22;8283;48.504;13.734;2024-03-06T00:57:45;8.60;75.30
16347;DHT22;8283;48.504;13.734;2024-03-06T01:00:06;8.70;75.20
16347;DHT22;8283;48.504;13.734;2024-03-06T01:02:29;8.70;75.30
16347;DHT22;8283;48.504;13.734;2024-03-06T01:04:48;8.70;75.20
16347;DHT22;8283;48.504;13.734;2024-03-06T01:07:08;8.70;75.20
16347;DHT22;8283;48.504;13.734;2024-03-06T01:09:27;8.70;75.20
16347;DHT22;8283;48.504;13.734;2024-03-06T01:11:46;8.80;75.30
16347;DHT22;8283;48.504;13.734;2024-03-06T01:14:07;8.80;75.30
16347;DHT22;8283;48.504;13.734;2024-03-06T01:16:26;8.80;75.40
16347;DHT22;8283;48.504;13.734;2024-03-06T01:18:45;8.80;75.40
16347;DHT22;8283;48.504;13.734;2024-03-06T01:21:05;8.80;75.50
16347;DHT22;8283;48.504;13.734;2024-03-06T01:23:24;8.80;75.60
16347;DHT22;8283;48.504;13.734;2024-03-06T01:25:44;8.80;75.60
16347;DHT22;8283;48.504;13.734;2024-03-06T01:28:04;8.90;75.60
16347;DHT22;8283;48.504;13.734;2024-03-06T01:30:23;8.90;75.60
16347;DHT22;8283;48.504;13.734;2024-03-06T01:32:43;8.90;75.60
16347;DHT22;8283;48.504;13.734;2024-03-06T01:35:02;8.90;75.60
16347;DHT22;8283;48.504;13.734;2024-03-06T01:37:21;8.90;75.60
16347;DHT22;8283;48.504;13.734;2024-03-06T01:39:41;8.90;75.50
16347;DHT22;8283;48.504;13.734;2024-03-06T01:42:00;8.90;75.50
16347;DHT22;8283;48.504;13.734;2024-03-06T01:44:20;8.90;75.40
16347;DHT22;8283;48.504;13.734;2024-03-06T01:46:39;8.90;75.40
16347;DHT22;8283;48.504;13.734;2024-03-06T01:48:59;8.90;75.30
16347;DHT22;8283;48.504;13.734;2024-03-06T01:51:19;8.90;75.30
16347;DHT22;8283;48.504;13.734;2024-03-06T01:53:38;8.90;75.20
16347;DHT22;8283;48.504;13.734;2024-03-06T01:55:58;8.90;75.80
16347;DHT22;8283;48.504;13.734;2024-03-06T01:58:18;8.90;75.10
16347;DHT22;8283;48.504;13.734;2024-03-06T02:00:39;8.90;75.00
16347;DHT22;8283;48.504;13.734;2024-03-06T02:03:00;8.80;75.00
16347;DHT22;8283;48.504;13.734;2024-03-06T02:05:19;8.90;75.10
16347;DHT22;8283;48.504;13.734;2024-03-06T02:07:39;8.80;75.00
16347;DHT22;8283;48.504;13.734;2024-03-06T02:10:01;8.80;74.90
16347;DHT22;8283;48.504;13.734;2024-03-06T02:12:21;8.80;74.90
16347;DHT22;8283;48.504;13.734;2024-03-06T02:14:40;9.30;75.20
16347;DHT22;8283;48.504;13.734;2024-03-06T02:16:59;8.70;74.70
16347;DHT22;8283;48.504;13.734;2024-03-06T02:19:18;8.70;74.70
16347;DHT22;8283;48.504;13.734;2024-03-06T02:21:38;8.60;74.60
16347;DHT22;8283;48.504;13.734;2024-03-06T02:23:57;8.60;74.60
16347;DHT22;8283;48.504;13.734;2024-03-06T02:26:18;8.60;74.60
16347;DHT22;8283;48.504;13.734;2024-03-06T02:28:37;8.50;74.60
16347;DHT22;8283;48.504;13.734;2024-03-06T02:30:57;8.50;74.70
16347;DHT22;8283;48.504;13.734;2024-03-06T02:33:16;8.40;74.70
16347;DHT22;8283;48.504;13.734;2024-03-06T02:35:37;8.40;74.70
16347;DHT22;8283;48.504;13.734;2024-03-06T02:38:03;8.30;74.70
16347;DHT22;8283;48.504;13.734;2024-03-06T02:40:23;8.30;74.70
16347;DHT22;8283;48.504;13.734;2024-03-06T02:42:43;8.20;74.70
16347;DHT22;8283;48.504;13.734;2024-03-06T02:45:03;8.20;74.70
16347;DHT22;8283;48.504;13.734;2024-03-06T02:47:23;8.20;74.90
16347;DHT22;8283;48.504;13.734;2024-03-06T02:49:43;8.10;74.90
16347;DHT22;8283;48.504;13.734;2024-03-06T02:52:03;8.10;75.00
16347;DHT22;8283;48.504;13.734;2024-03-06T02:54:23;7.80;74.80
16347;DHT22;8283;48.504;13.734;2024-03-06T02:56:44;8.00;75.00
16347;DHT22;8283;48.504;13.734;2024-03-06T02:59:03;8.00;75.00
16347;DHT22;8283;48.504;13.734;2024-03-06T03:01:23;8.00;75.00
16347;DHT22;8283;48.504;13.734;2024-03-06T03:03:43;8.00;75.10
16347;DHT22;8283;48.504;13.734;2024-03-06T03:06:03;7.90;75.10
16347;DHT22;8283;48.504;13.734;2024-03-06T03:08:24;7.90;75.20
16347;DHT22;8283;48.504;13.734;2024-03-06T03:10:43;7.90;75.30
16347;DHT22;8283;48.504;13.734;2024-03-06T03:13:04;7.90;75.30
16347;DHT22;8283;48.504;13.734;2024-03-06T03:15:23;7.80;75.40
16347;DHT22;8283;48.504;13.734;2024-03-06T03:17:42;7.80;75.30
16347;DHT22;8283;48.504;13.734;2024-03-06T03:20:03;7.80;75.30
16347;DHT22;8283;48.504;13.734;2024-03-06T03:22:29;8.30;75.60
16347;DHT22;8283;48.504;13.734;2024-03-06T03:24:48;7.80;75.40
16347;DHT22;8283;48.504;13.734;2024-03-06T03:27:08;7.70;75.40
16347;DHT22;8283;48.504;13.734;2024-03-06T03:29:27;7.70;75.60
16347;DHT22;8283;48.504;13.734;2024-03-06T03:31:46;7.70;75.80
16347;DHT22;8283;48.504;13.734;2024-03-06T03:34:06;7.60;75.80
16347;DHT22;8283;48.504;13.734;2024-03-06T03:36:25;7.60;75.80
16347;DHT22;8283;48.504;13.734;2024-03-06T03:38:44;7.60;75.90
16347;DHT22;8283;48.504;13.734;2024-03-06T03:41:10;7.60;75.90
16347;DHT22;8283;48.504;13.734;2024-03-06T03:43:31;7.60;76.30
16347;DHT22;8283;48.504;13.734;2024-03-06T03:45:52;7.50;76.00
16347;DHT22;8283;48.504;13.734;2024-03-06T03:48:11;7.50;76.10
16347;DHT22;8283;48.504;13.734;2024-03-06T03:50:31;7.50;76.10
16347;DHT22;8283;48.504;13.734;2024-03-06T03:52:51;8.10;76.60
16347;DHT22;8283;48.504;13.734;2024-03-06T03:55:10;7.50;76.40
16347;DHT22;8283;48.504;13.734;2024-03-06T03:57:30;7.50;76.50
16347;DHT22;8283;48.504;13.734;2024-03-06T03:59:50;7.50;76.60
16347;DHT22;8283;48.504;13.734;2024-03-06T04:02:10;7.50;76.80
16347;DHT22;8283;48.504;13.734;2024-03-06T04:04:29;7.50;76.80
16347;DHT22;8283;48.504;13.734;2024-03-06T04:06:49;7.50;76.80
16347;DHT22;8283;48.504;13.734;2024-03-06T04:09:08;7.50;76.80
16347;DHT22;8283;48.504;13.734;2024-03-06T04:11:31;7.50;76.70
16347;DHT22;8283;48.504;13.734;2024-03-06T04:13:55;7.50;76.70
16347;DHT22;8283;48.504;13.734;2024-03-06T04:16:17;7.70;76.80
16347;DHT22;8283;48.504;13.734;2024-03-06T04:18:37;7.50;77.00
16347;DHT22;8283;48.504;13.734;2024-03-06T04:20:57;7.50;76.70
16347;DHT22;8283;48.504;13.734;2024-03-06T04:23:17;7.50;76.60
16347;DHT22;8283;48.504;13.734;2024-03-06T04:25:37;7.50;76.50
16347;DHT22;8283;48.504;13.734;2024-03-06T04:27:58;7.50;76.50
16347;DHT22;8283;48.504;13.734;2024-03-06T04:30:17;7.50;76.60
16347;DHT22;8283;48.504;13.734;2024-03-06T04:32:36;7.40;76.70
16347;DHT22;8283;48.504;13.734;2024-03-06T04:34:55;7.40;76.80
16347;DHT22;8283;48.504;13.734;2024-03-06T04:37:15;7.40;76.90
16347;DHT22;8283;48.504;13.734;2024-03-06T04:39:35;7.30;76.80
16347;DHT22;8283;48.504;13.734;2024-03-06T04:41:54;7.30;76.80
16347;DHT22;8283;48.504;13.734;2024-03-06T04:44:13;7.30;76.70
16347;DHT22;8283;48.504;13.734;2024-03-06T04:46:33;7.20;77.50
16347;DHT22;8283;48.504;13.734;2024-03-06T04:48:53;7.10;76.80
16347;DHT22;8283;48.504;13.734;2024-03-06T04:51:12;7.10;76.90
16347;DHT22;8283;48.504;13.734;2024-03-06T04:53:31;7.10;76.90
16347;DHT22;8283;48.504;13.734;2024-03-06T04:55:51;7.10;77.00
16347;DHT22;8283;48.504;13.734;2024-03-06T04:58:10;7.10;77.20
16347;DHT22;8283;48.504;13.734;2024-03-06T05:00:30;7.10;77.20
16347;DHT22;8283;48.504;13.734;2024-03-06T05:02:49;7.10;77.30
16347;DHT22;8283;48.504;13.734;2024-03-06T05:05:08;7.00;78.00
16347;DHT22;8283;48.504;13.734;2024-03-06T05:07:28;7.00;77.40
16347;DHT22;8283;48.504;13.734;2024-03-06T05:09:48;7.10;77.40
16347;DHT22;8283;48.504;13.734;2024-03-06T05:12:08;7.00;77.40
16347;DHT22;8283;48.504;13.734;2024-03-06T05:14:27;7.00;77.40
16347;DHT22;8283;48.504;13.734;2024-03-06T05:16:47;7.00;77.50
16347;DHT22;8283;48.504;13.734;2024-03-06T05:19:06;7.00;77.50
16347;DHT22;8283;48.504;13.734;2024-03-06T05:21:25;7.00;77.70
16347;DHT22;8283;48.504;13.734;2024-03-06T05:23:45;7.00;77.80
16347;DHT22;8283;48.504;13.734;2024-03-06T05:26:04;7.50;78.20
16347;DHT22;8283;48.504;13.734;2024-03-06T05:28:23;7.60;78.30
16347;DHT22;8283;48.504;13.734;2024-03-06T05:30:42;7.10;78.10
16347;DHT22;8283;48.504;13.734;2024-03-06T05:33:02;7.00;78.00
16347;DHT22;8283;48.504;13.734;2024-03-06T05:35:22;7.10;78.10
16347;DHT22;8283;48.504;13.734;2024-03-06T05:37:42;7.10;78.20
16347;DHT22;8283;48.504;13.734;2024-03-06T05:40:03;7.10;78.40
16347;DHT22;8283;48.504;13.734;2024-03-06T05:42:24;7.10;78.40
16347;DHT22;8283;48.504;13.734;2024-03-06T05:44:43;7.10;78.40
16347;DHT22;8283;48.504;13.734;2024-03-06T05:47:03;7.10;78.50
16347;DHT22;8283;48.504;13.734;2024-03-06T05:49:22;7.10;78.50
16347;DHT22;8283;48.504;13.734;2024-03-06T05:51:42;7.20;78.60
16347;DHT22;8283;48.504;13.734;2024-03-06T05:54:01;7.20;78.70
16347;DHT22;8283;48.504;13.734;2024-03-06T05:56:20;7.20;78.80
16347;DHT22;8283;48.504;13.734;2024-03-06T05:58:39;7.20;78.80
16347;DHT22;8283;48.504;13.734;2024-03-06T06:00:59;7.20;79.10
16347;DHT22;8283;48.504;13.734;2024-03-06T06:03:19;7.50;79.10
16347;DHT22;8283;48.504;13.734;2024-03-06T06:05:39;7.30;79.00
16347;DHT22;8283;48.504;13.734;2024-03-06T06:07:58;7.30;79.10
16347;DHT22;8283;48.504;13.734;2024-03-06T06:10:18;7.30;79.00
16347;DHT22;8283;48.504;13.734;2024-03-06T06:12:38;7.30;79.10
16347;DHT22;8283;48.504;13.734;2024-03-06T06:14:57;7.30;79.10
16347;DHT22;8283;48.504;13.734;2024-03-06T06:17:16;7.30;79.20
16347;DHT22;8283;48.504;13.734;2024-03-06T06:19:36;7.40;79.40
16347;DHT22;8283;48.504;13.734;2024-03-06T06:21:56;7.40;79.30
16347;DHT22;8283;48.504;13.734;2024-03-06T06:24:15;7.50;79.40
16347;DHT22;8283;48.504;13.734;2024-03-06T06:26:35;7.50;79.30
16347;DHT22;8283;48.504;13.734;2024-03-06T06:28:54;7.50;79.40
16347;DHT22;8283;48.504;13.734;2024-03-06T06:31:14;7.50;79.50
16347;DHT22;8283;48.504;13.734;2024-03-06T06:33:33;7.60;79.70
16347;DHT22;8283;48.504;13.734;2024-03-06T06:35:53;7.60;79.50
16347;DHT22;8283;48.504;13.734;2024-03-06T06:38:13;7.60;79.50
16347;DHT22;8283;48.504;13.734;2024-03-06T06:40:32;7.60;79.50
16347;DHT22;8283;48.504;13.734;2024-03-06T06:42:52;7.60;79.40
16347;DHT22;8283;48.504;13.734;2024-03-06T06:45:11;8.70;80.30
16347;DHT22;8283;48.504;13.734;2024-03-06T06:47:31;7.70;79.80
16347;DHT22;8283;48.504;13.734;2024-03-06T06:49:50;7.70;79.80
16347;DHT22;8283;48.504;13.734;2024-03-06T06:52:09;7.70;80.00
16347;DHT22;8283;48.504;13.734;2024-03-06T06:54:29;7.70;80.10
16347;DHT22;8283;48.504;13.734;2024-03-06T06:56:48;7.80;80.20
16347;DHT22;8283;48.504;13.734;2024-03-06T06:59:09;7.80;80.50
16347;DHT22;8283;48.504;13.734;2024-03-06T07:01:28;7.80;80.50
16347;DHT22;8283;48.504;13.734;2024-03-06T07:03:47;7.90;80.80
16347;DHT22;8283;48.504;13.734;2024-03-06T07:06:07;8.00;81.00
16347;DHT22;8283;48.504;13.734;2024-03-06T07:08:26;8.00;81.10
16347;DHT22;8283;48.504;13.734;2024-03-06T07:10:45;8.10;81.30
16347;DHT22;8283;48.504;13.734;2024-03-06T07:13:05;8.20;81.50
16347;DHT22;8283;48.504;13.734;2024-03-06T07:15:25;8.30;81.60
16347;DHT22;8283;48.504;13.734;2024-03-06T07:17:44;8.40;81.60
16347;DHT22;8283;48.504;13.734;2024-03-06T07:20:04;8.60;81.90
16347;DHT22;8283;48.504;13.734;2024-03-06T07:22:25;8.70;82.00
16347;DHT22;8283;48.504;13.734;2024-03-06T07:24:44;8.80;82.20
16347;DHT22;8283;48.504;13.734;2024-03-06T07:27:04;8.90;82.30
16347;DHT22;8283;48.504;13.734;2024-03-06T07:29:23;9.10;82.60
16347;DHT22;8283;48.504;13.734;2024-03-06T07:31:42;9.20;82.50
16347;DHT22;8283;48.504;13.734;2024-03-06T07:34:03;9.30;82.60
16347;DHT22;8283;48.504;13.734;2024-03-06T07:36:22;9.50;82.60
16347;DHT22;8283;48.504;13.734;2024-03-06T07:38:42;9.60;82.80
16347;DHT22;8283;48.504;13.734;2024-03-06T07:41:02;9.80;82.90
16347;DHT22;8283;48.504;13.734;2024-03-06T07:43:22;10.00;83.20
16347;DHT22;8283;48.504;13.734;2024-03-06T07:45:42;10.20;83.10
16347;DHT22;8283;48.504;13.734;2024-03-06T07:48:01;10.40;82.10
16347;DHT22;8283;48.504;13.734;2024-03-06T07:50:21;10.60;81.80
16347;DHT22;8283;48.504;13.734;2024-03-06T07:52:40;10.80;81.50
16347;DHT22;8283;48.504;13.734;2024-03-06T07:55:00;11.00;81.30
16347;DHT22;8283;48.504;13.734;2024-03-06T07:57:19;10.70;80.50
16347;DHT22;8283;48.504;13.734;2024-03-06T07:59:40;10.60;80.30
16347;DHT22;8283;48.504;13.734;2024-03-06T08:02:00;11.40;80.50
16347;DHT22;8283;48.504;13.734;2024-03-06T08:04:20;11.60;80.40
16347;DHT22;8283;48.504;13.734;2024-03-06T08:06:39;11.70;80.10
16347;DHT22;8283;48.504;13.734;2024-03-06T08:08:59;11.90;79.80
16347;DHT22;8283;48.504;13.734;2024-03-06T08:11:18;12.00;79.30
16347;DHT22;8283;48.504;13.734;2024-03-06T08:13:38;12.10;79.10
16347;DHT22;8283;48.504;13.734;2024-03-06T08:15:58;12.20;78.90
16347;DHT22;8283;48.504;13.734;2024-03-06T08:18:17;12.30;78.60
16347;DHT22;8283;48.504;13.734;2024-03-06T08:20:37;12.40;78.40
16347;DHT22;8283;48.504;13.734;2024-03-06T08:22:56;12.40;78.20
16347;DHT22;8283;48.504;13.734;2024-03-06T08:25:16;12.50;78.20
16347;DHT22;8283;48.504;13.734;2024-03-06T08:27:36;12.60;78.00
16347;DHT22;8283;48.504;13.734;2024-03-06T08:29:56;12.60;77.70
16347;DHT22;8283;48.504;13.734;2024-03-06T08:32:15;12.70;77.50
16347;DHT22;8283;48.504;13.734;2024-03-06T08:34:34;12.70;77.20
16347;DHT22;8283;48.504;13.734;2024-03-06T08:36:54;12.80;77.10
16347;DHT22;8283;48.504;13.734;2024-03-06T08:39:14;12.90;77.00
16347;DHT22;8283;48.504;13.734;2024-03-06T08:41:35;13.00;76.70
16347;DHT22;8283;48.504;13.734;2024-03-06T08:43:54;13.00;76.60
16347;DHT22;8283;48.504;13.734;2024-03-06T08:46:13;13.00;76.50
16347;DHT22;8283;48.504;13.734;2024-03-06T08:48:33;13.10;76.30
16347;DHT22;8283;48.504;13.734;2024-03-06T08:50:52;13.20;76.10
16347;DHT22;8283;48.504;13.734;2024-03-06T08:53:12;13.20;75.70
16347;DHT22;8283;48.504;13.734;2024-03-06T08:55:33;13.70;75.80
16347;DHT22;8283;48.504;13.734;2024-03-06T08:57:52;13.00;75.20
16347;DHT22;8283;48.504;13.734;2024-03-06T09:00:14;13.30;75.10
16347;DHT22;8283;48.504;13.734;2024-03-06T09:02:39;13.30;74.70
16347;DHT22;8283;48.504;13.734;2024-03-06T09:04:59;13.30;74.60
16347;DHT22;8283;48.504;13.734;2024-03-06T09:07:20;13.30;74.60
16347;DHT22;8283;48.504;13.734;2024-03-06T09:09:42;13.30;74.60
16347;DHT22;8283;48.504;13.734;2024-03-06T09:12:02;13.30;74.50
16347;DHT22;8283;48.504;13.734;2024-03-06T09:14:23;13.30;73.90
16347;DHT22;8283;48.504;13.734;2024-03-06T09:16:43;13.30;74.00
16347;DHT22;8283;48.504;13.734;2024-03-06T09:19:02;13.30;73.90
16347;DHT22;8283;48.504;13.734;2024-03-06T09:21:21;13.30;74.10
16347;DHT22;8283;48.504;13.734;2024-03-06T09:23:41;13.30;73.90
16347;DHT22;8283;48.504;13.734;2024-03-06T09:26:01;13.40;74.00
16347;DHT22;8283;48.504;13.734;2024-03-06T09:28:20;13.40;74.00
16347;DHT22;8283;48.504;13.734;2024-03-06T09:30:40;13.50;74.90
16347;DHT22;8283;48.504;13.734;2024-03-06T09:33:00;13.50;73.90
16347;DHT22;8283;48.504;13.734;2024-03-06T09:35:20;13.60;73.80
16347;DHT22;8283;48.504;13.734;2024-03-06T09:37:39;13.70;73.80
16347;DHT22;8283;48.504;13.734;2024-03-06T09:39:58;13.70;73.70
16347;DHT22;8283;48.504;13.734;2024-03-06T09:42:18;13.80;73.50
16347;DHT22;8283;48.504;13.734;2024-03-06T09:44:37;13.90;73.50
16347;DHT22;8283;48.504;13.734;2024-03-06T09:46:59;13.90;73.30
16347;DHT22;8283;48.504;13.734;2024-03-06T09:49:19;14.00;73.20
16347;DHT22;8283;48.504;13.734;2024-03-06T09:51:39;14.10;73.30
16347;DHT22;8283;48.504;13.734;2024-03-06T09:54:00;14.10;73.20
16347;DHT22;8283;48.504;13.734;2024-03-06T09:56:20;14.20;73.20
16347;DHT22;8283;48.504;13.734;2024-03-06T09:58:39;14.20;72.10
16347;DHT22;8283;48.504;13.734;2024-03-06T10:01:01;14.20;71.90
16347;DHT22;8283;48.504;13.734;2024-03-06T10:03:22;14.20;71.60
16347;DHT22;8283;48.504;13.734;2024-03-06T10:05:42;14.20;72.00
16347;DHT22;8283;48.504;13.734;2024-03-06T10:08:03;14.20;72.10
16347;DHT22;8283;48.504;13.734;2024-03-06T10:10:26;14.20;71.90
16347;DHT22;8283;48.504;13.734;2024-03-06T10:12:46;14.20;71.70
16347;DHT22;8283;48.504;13.734;2024-03-06T10:15:07;14.20;71.60
16347;DHT22;8283;48.504;13.734;2024-03-06T10:17:29;14.20;71.10
16347;DHT22;8283;48.504;13.734;2024-03-06T10:19:48;14.20;71.50
16347;DHT22;8283;48.504;13.734;2024-03-06T10:22:10;14.30;71.60
16347;DHT22;8283;48.504;13.734;2024-03-06T10:24:30;14.30;71.60
16347;DHT22;8283;48.504;13.734;2024-03-06T10:26:50;14.40;71.40
16347;DHT22;8283;48.504;13.734;2024-03-06T10:29:10;14.40;71.20
16347;DHT22;8283;48.504;13.734;2024-03-06T10:31:30;14.40;70.80
16347;DHT22;8283;48.504;13.734;2024-03-06T10:33:49;14.40;70.60
16347;DHT22;8283;48.504;13.734;2024-03-06T10:36:10;14.40;70.40
16347;DHT22;8283;48.504;13.734;2024-03-06T10:38:35;14.30;70.30
16347;DHT22;8283;48.504;13.734;2024-03-06T10:40:56;14.30;69.60
16347;DHT22;8283;48.504;13.734;2024-03-06T10:43:17;14.30;71.00
16347;DHT22;8283;48.504;13.734;2024-03-06T10:45:49;14.30;70.20
16347;DHT22;8283;48.504;13.734;2024-03-06T10:48:09;14.30;69.80
16347;DHT22;8283;48.504;13.734;2024-03-06T10:50:32;14.30;70.10
16347;DHT22;8283;48.504;13.734;2024-03-06T10:52:53;14.30;70.00
16347;DHT22;8283;48.504;13.734;2024-03-06T10:55:15;14.30;69.80
16347;DHT22;8283;48.504;13.734;2024-03-06T10:57:36;14.20;69.70
16347;DHT22;8283;48.504;13.734;2024-03-06T10:59:56;14.20;69.60
16347;DHT22;8283;48.504;13.734;2024-03-06T11:02:18;14.20;69.70
16347;DHT22;8283;48.504;13.734;2024-03-06T11:04:39;14.20;69.50
16347;DHT22;8283;48.504;13.734;2024-03-06T11:07:00;14.20;69.20
16347;DHT22;8283;48.504;13.734;2024-03-06T11:09:20;14.10;69.40
16347;DHT22;8283;48.504;13.734;2024-03-06T11:11:52;14.10;69.10
16347;DHT22;8283;48.504;13.734;2024-03-06T11:14:12;14.10;68.00
16347;DHT22;8283;48.504;13.734;2024-03-06T11:16:58;14.00;68.40
16347;DHT22;8283;48.504;13.734;2024-03-06T11:19:19;14.00;67.60
16347;DHT22;8283;48.504;13.734;2024-03-06T11:21:48;14.00;69.00
16347;DHT22;8283;48.504;13.734;2024-03-06T11:26:36;14.10;68.70
16347;DHT22;8283;48.504;13.734;2024-03-06T11:28:55;14.10;69.20
16347;DHT22;8283;48.504;13.734;2024-03-06T11:31:16;14.20;69.40
16347;DHT22;8283;48.504;13.734;2024-03-06T11:33:41;14.20;69.30
16347;DHT22;8283;48.504;13.734;2024-03-06T11:36:16;14.80;68.20
16347;DHT22;8283;48.504;13.734;2024-03-06T11:38:39;14.30;66.00
16347;DHT22;8283;48.504;13.734;2024-03-06T11:40:59;14.30;67.80
16347;DHT22;8283;48.504;13.734;2024-03-06T11:43:25;14.30;68.10
16347;DHT22;8283;48.504;13.734;2024-03-06T11:45:46;14.30;67.20
16347;DHT22;8283;48.504;13.734;2024-03-06T11:48:06;14.30;68.00
16347;DHT22;8283;48.504;13.734;2024-03-06T11:50:37;14.30;68.20
16347;DHT22;8283;48.504;13.734;2024-03-06T11:52:56;14.40;67.90
16347;DHT22;8283;48.504;13.734;2024-03-06T11:55:16;14.40;68.00
16347;DHT22;8283;48.504;13.734;2024-03-06T11:57:36;14.30;67.60
16347;DHT22;8283;48.504;13.734;2024-03-06T12:00:03;14.30;67.60
16347;DHT22;8283;48.504;13.734;2024-03-06T12:02:26;14.20;66.40
16347;DHT22;8283;48.504;13.734;2024-03-06T12:04:45;14.20;67.20
16347;DHT22;8283;48.504;13.734;2024-03-06T12:07:05;14.10;67.60
16347;DHT22;8283;48.504;13.734;2024-03-06T12:09:25;14.00;68.00
16347;DHT22;8283;48.504;13.734;2024-03-06T12:11:46;14.40;68.90
16347;DHT22;8283;48.504;13.734;2024-03-06T12:14:06;14.60;69.20
16347;DHT22;8283;48.504;13.734;2024-03-06T12:16:25;14.80;69.10
16347;DHT22;8283;48.504;13.734;2024-03-06T12:18:45;15.00;69.10
16347;DHT22;8283;48.504;13.734;2024-03-06T12:21:05;15.20;68.90
16347;DHT22;8283;48.504;13.734;2024-03-06T12:23:25;15.30;68.90
16347;DHT22;8283;48.504;13.734;2024-03-06T12:25:47;15.50;67.60
16347;DHT22;8283;48.504;13.734;2024-03-06T12:28:07;15.60;67.30
16347;DHT22;8283;48.504;13.734;2024-03-06T12:30:30;15.60;67.60
16347;DHT22;8283;48.504;13.734;2024-03-06T12:32:59;15.70;66.70
16347;DHT22;8283;48.504;13.734;2024-03-06T12:35:24;15.70;66.60
16347;DHT22;8283;48.504;13.734;2024-03-06T12:37:44;15.70;65.60
16347;DHT22;8283;48.504;13.734;2024-03-06T12:40:04;15.80;66.40
16347;DHT22;8283;48.504;13.734;2024-03-06T12:42:24;15.80;66.40
16347;DHT22;8283;48.504;13.734;2024-03-06T12:44:44;15.80;66.30
16347;DHT22;8283;48.504;13.734;2024-03-06T12:47:04;15.80;66.30
16347;DHT22;8283;48.504;13.734;2024-03-06T12:49:24;15.90;66.50
16347;DHT22;8283;48.504;13.734;2024-03-06T12:51:43;15.90;66.30
16347;DHT22;8283;48.504;13.734;2024-03-06T12:54:02;16.00;65.80
16347;DHT22;8283;48.504;13.734;2024-03-06T12:56:23;16.00;65.80
16347;DHT22;8283;48.504;13.734;2024-03-06T12:58:44;16.00;65.40
16347;DHT22;8283;48.504;13.734;2024-03-06T13:01:04;16.00;66.20
16347;DHT22;8283;48.504;13.734;2024-03-06T13:03:24;16.00;65.20
16347;DHT22;8283;48.504;13.734;2024-03-06T13:05:44;15.90;65.10
16347;DHT22;8283;48.504;13.734;2024-03-06T13:08:03;15.90;65.00
16347;DHT22;8283;48.504;13.734;2024-03-06T13:10:23;15.80;64.90
16347;DHT22;8283;48.504;13.734;2024-03-06T13:12:42;15.80;65.00
16347;DHT22;8283;48.504;13.734;2024-03-06T13:15:01;15.70;64.60
16347;DHT22;8283;48.504;13.734;2024-03-06T13:17:20;15.70;64.70
16347;DHT22;8283;48.504;13.734;2024-03-06T13:19:40;15.60;64.70
16347;DHT22;8283;48.504;13.734;2024-03-06T13:22:00;15.60;64.90
16347;DHT22;8283;48.504;13.734;2024-03-06T13:24:19;15.50;64.50
16347;DHT22;8283;48.504;13.734;2024-03-06T13:26:38;15.50;64.40
16347;DHT22;8283;48.504;13.734;2024-03-06T13:28:59;15.50;64.70
16347;DHT22;8283;48.504;13.734;2024-03-06T13:31:18;15.60;65.00
16347;DHT22;8283;48.504;13.734;2024-03-06T13:33:38;15.60;65.20
16347;DHT22;8283;48.504;13.734;2024-03-06T13:35:57;15.60;64.70
16347;DHT22;8283;48.504;13.734;2024-03-06T13:38:16;15.70;64.80
16347;DHT22;8283;48.504;13.734;2024-03-06T13:40:36;15.70;64.70
16347;DHT22;8283;48.504;13.734;2024-03-06T13:42:55;15.80;64.90
16347;DHT22;8283;48.504;13.734;2024-03-06T13:45:14;15.90;64.90
16347;DHT22;8283;48.504;13.734;2024-03-06T13:47:34;15.90;64.90
16347;DHT22;8283;48.504;13.734;2024-03-06T13:49:53;16.00;64.90
16347;DHT22;8283;48.504;13.734;2024-03-06T13:52:14;16.10;64.90
16347;DHT22;8283;48.504;13.734;2024-03-06T13:54:34;16.20;64.80
16347;DHT22;8283;48.504;13.734;2024-03-06T13:56:54;16.30;64.90
16347;DHT22;8283;48.504;13.734;2024-03-06T13:59:20;16.30;64.50
16347;DHT22;8283;48.504;13.734;2024-03-06T14:01:39;16.40;64.50
16347;DHT22;8283;48.504;13.734;2024-03-06T14:03:59;16.40;64.10
16347;DHT22;8283;48.504;13.734;2024-03-06T14:06:19;16.40;63.90
16347;DHT22;8283;48.504;13.734;2024-03-06T14:08:38;16.50;63.60
16347;DHT22;8283;48.504;13.734;2024-03-06T14:11:00;16.40;63.30
16347;DHT22;8283;48.504;13.734;2024-03-06T14:13:19;16.40;63.00
16347;DHT22;8283;48.504;13.734;2024-03-06T14:15:38;16.30;62.40
16347;DHT22;8283;48.504;13.734;2024-03-06T14:17:58;16.20;61.90
16347;DHT22;8283;48.504;13.734;2024-03-06T14:20:17;16.10;62.00
16347;DHT22;8283;48.504;13.734;2024-03-06T14:22:37;16.00;61.80
16347;DHT22;8283;48.504;13.734;2024-03-06T14:24:57;15.90;61.00
16347;DHT22;8283;48.504;13.734;2024-03-06T14:27:17;15.70;60.80
16347;DHT22;8283;48.504;13.734;2024-03-06T14:29:36;15.50;60.30
16347;DHT22;8283;48.504;13.734;2024-03-06T14:31:56;15.40;60.90
16347;DHT22;8283;48.504;13.734;2024-03-06T14:34:15;15.20;61.10
16347;DHT22;8283;48.504;13.734;2024-03-06T14:36:35;15.10;61.40
16347;DHT22;8283;48.504;13.734;2024-03-06T14:38:54;15.00;61.70
16347;DHT22;8283;48.504;13.734;2024-03-06T14:41:13;14.90;62.10
16347;DHT22;8283;48.504;13.734;2024-03-06T14:43:33;14.90;62.30
16347;DHT22;8283;48.504;13.734;2024-03-06T14:45:58;14.90;62.40
16347;DHT22;8283;48.504;13.734;2024-03-06T14:48:18;14.90;62.80
16347;DHT22;8283;48.504;13.734;2024-03-06T14:50:37;14.90;62.80
16347;DHT22;8283;48.504;13.734;2024-03-06T14:52:56;15.00;62.70
16347;DHT22;8283;48.504;13.734;2024-03-06T14:55:16;15.00;62.60